Belle Prairie City, Illinois
Current Conditions -  °F | °C
As of 12:15 PM on Thursday 27 Nov 2014 (Local Time) from KFWC Reporting Station
Overcast Overcast  
Wind Chill: 22°   Ceiling: 2100
Heat Index: 30°   Visibility: 10mi
Dew Point: 24°   Wind: 8mph
Humidity: 78%   Direction: 300°WNW
Pressure: 30.44"   Gusts: NA
Location:  38.2063°N, 88.5793°W
Report Text: KFWC 271815Z AUTO 30007KT 10SM OVC021 M01/M04 A3044 RMK AO1 T10111045
Loading
Personal Weather Stations






























Interactive Weather Map New forecast layout! Learn more

10-Day Weather Forecast

Advertisements
Track Severe Weather on mobile